Latest Coastal Weather Observations for Lockhart River

IDQ60701

Issued at 1:02 am EST Thursday 11 August 2022 (issued every 10 minutes, with the page automatically refreshed every 10 minutes)

About coastal observations | Map of coastal stations | Coastal observations for QLD | Marine services | Other Formats
Station Details ID: 028008 Name: LOCKHART RIVER AIRPORT Lat: -12.79 Lon: 143.30 Height: 18.5 m
Data from the previous 72 hours. | See also: Recent months at Lockhart River
Date/Time
EST
Wind Sea
Height
m
Swell Vis
km
Cloud Weather Temp
°C
Press
MSL
hPa
Rain since
9am
mm
Dir  Spd
kts
Gust
kts
Height
m
Period
s
Dir
11/01:00am SE 11 16 - - - - 10 Partly cloudy - 23.5 1014.7 0.0
11/12:30am SE 11 15 - - - - 10 Partly cloudy - 23.5 1015.1 0.0
11/12:00am SE 11 15 - - - - 10 Mostly clear - 23.6 1015.4 0.0
 
Date/Time
EST
Wind Sea
Height
m
Swell Vis
km
Cloud Weather Temp
°C
Press
MSL
hPa
Rain since
9am
mm
Dir  Spd
kts
Gust
kts
Height
m
Period
s
Dir
10/11:30pm SE 11 16 - - - - 10 - - 23.7 1015.7 0.0
10/11:00pm SE 11 16 - - - - 10 - - 23.9 1015.7 0.0
10/10:30pm SE 12 19 - - - - 10 - - 23.9 1015.8 0.0
10/10:00pm SE 13 18 - - - - 10 Partly cloudy - 24.1 1015.9 0.0
10/09:30pm ESE 13 19 - - - - 10 Partly cloudy - 24.3 1015.6 0.0
10/09:00pm SE 12 18 - - - - 10 Mostly clear - 24.2 1015.6 0.0
10/08:30pm SE 12 17 - - - - 10 Partly cloudy - 24.1 1015.4 0.0
10/08:00pm ESE 11 16 - - - - 10 Partly cloudy - 23.8 1015.1 0.0
10/07:30pm SE 12 17 - - - - 10 Partly cloudy - 23.7 1014.7 0.0
10/07:00pm SE 13 19 - - - - 10 Partly cloudy - 23.7 1014.4 0.0
10/06:30pm ESE 13 21 - - - - 9 Partly cloudy - 22.9 1014.2 0.0
10/06:00pm SE 15 20 - - - - 10 Cloudy - 24.7 1013.7 0.0
10/05:30pm ESE 12 18 - - - - 10 Partly cloudy - 24.9 1013.5 0.0
10/05:00pm SE 15 21 - - - - 10 Partly cloudy - 25.4 1013.3 0.0
10/04:30pm SE 15 23 - - - - 10 Partly cloudy - 25.6 1013.2 0.0
10/04:00pm ESE 15 21 - - - - 10 Partly cloudy - 26.0 1013.0 0.0
10/03:40pm SE 16 26 - - - - 10 Partly cloudy - 26.0 1013.0 0.0
10/03:30pm SE 15 21 - - - - 10 Partly cloudy - 26.0 1013.0 0.0
10/03:00pm SE 17 24 - - - - 10 Mostly cloudy - 26.5 1013.2 0.0
10/02:30pm SE 16 24 - - - - 10 Partly cloudy - 25.9 1013.2 0.0
10/02:00pm SE 19 24 - - - - 10 Partly cloudy - 26.3 1013.6 0.0
10/01:30pm SE 19 27 - - - - 10 Partly cloudy - 26.7 1013.8 0.0
10/01:00pm SE 16 23 - - - - 10 Partly cloudy - 26.1 1014.1 0.0
10/12:30pm SE 17 24 - - - - 10 Partly cloudy - 25.8 1014.8 0.0
10/12:00pm SE 15 22 - - - - 10 Cloudy - 25.5 1015.3 0.0
10/11:30am ESE 15 26 - - - - 10 Partly cloudy - 25.6 1015.6 0.0
10/11:29am ESE 15 26 - - - - 10 Partly cloudy - 25.7 1015.6 0.0
10/11:00am ESE 15 23 - - - - 10 Cloudy - 25.3 1016.0 0.0
10/10:30am ESE 14 21 - - - - 10 Cloudy - 25.9 1016.0 0.0
10/10:00am ESE 14 21 - - - - 10 Partly cloudy - 25.1 1016.0 0.0
10/09:47am ESE 15 25 - - - - 10 Partly cloudy - 24.9 1015.9 0.0
10/09:30am SE 15 22 - - - - 10 Partly cloudy - 24.7 1015.8 0.0
10/09:00am SE 14 20 - - - - 10 Mostly cloudy - 24.5 1015.7 0.0
10/08:30am SE 15 22 - - - - 10 Partly cloudy - 24.4 1015.4 0.0
10/08:00am SE 11 16 - - - - 10 Partly cloudy - 23.8 1015.2 0.0
10/07:30am SE 13 18 - - - - 10 Partly cloudy - 23.7 1015.1 0.0
10/07:00am SE 13 20 - - - - 10 Cloudy - 23.7 1014.7 0.0
10/06:30am SE 14 20 - - - - 10 Partly cloudy - 23.7 1014.2 0.0
10/06:00am SE 13 17 - - - - 10 Cloudy - 23.8 1013.9 0.0
10/05:30am SE 12 18 - - - - 10 Partly cloudy - 23.8 1013.6 0.0
10/05:00am SE 12 19 - - - - 10 Partly cloudy - 23.9 1013.4 0.0
10/04:30am SE 12 17 - - - - 10 Partly cloudy - 23.8 1013.2 0.0
10/04:00am SE 13 20 - - - - 10 Partly cloudy - 23.9 1013.1 0.0
10/03:30am SE 14 19 - - - - 10 Partly cloudy - 24.0 1013.3 0.0
10/03:00am SE 13 18 - - - - 10 Mostly cloudy - 24.1 1013.5 0.0
10/02:30am SE 13 21 - - - - 10 Partly cloudy - 24.1 1013.7 0.0
10/02:00am SE 12 18 - - - - 10 Partly cloudy - 24.0 1013.7 0.0
10/01:30am SE 13 19 - - - - 10 Partly cloudy - 24.1 1014.1 0.0
10/01:00am SE 14 21 - - - - 10 Partly cloudy - 24.2 1014.3 0.0
10/12:30am SE 11 17 - - - - 10 Partly cloudy - 24.1 1014.6 0.0
10/12:00am SE 11 16 - - - - 10 Mostly clear - 24.1 1015.0 0.0
 
Date/Time
EST
Wind Sea
Height
m
Swell Vis
km
Cloud Weather Temp
°C
Press
MSL
hPa
Rain since
9am
mm
Dir  Spd
kts
Gust
kts
Height
m
Period
s
Dir
09/11:30pm SE 12 16 - - - - 10 Partly cloudy - 24.1 1015.2 0.0
09/11:00pm ESE 13 19 - - - - 10 Partly cloudy - 24.4 1015.2 0.0
09/10:30pm SE 13 18 - - - - 10 Partly cloudy - 24.2 1015.3 0.0
09/10:00pm SE 14 19 - - - - 10 Partly cloudy - 24.3 1015.2 0.0
09/09:30pm SE 13 20 - - - - 10 Partly cloudy - 24.5 1015.1 0.0
09/09:00pm SE 13 17 - - - - 10 Cloudy - 24.4 1015.1 0.0
09/08:30pm SE 12 18 - - - - 10 Partly cloudy - 24.5 1014.8 0.0
09/08:00pm ESE 13 22 - - - - 10 Partly cloudy - 24.6 1014.4 0.0
09/07:30pm SE 14 23 - - - - 10 Partly cloudy - 24.8 1013.8 0.0
09/07:00pm SE 12 18 - - - - 10 Partly cloudy - 24.9 1013.5 0.0
09/06:30pm SE 14 20 - - - - 10 Partly cloudy - 25.0 1013.1 0.0
09/06:00pm SE 14 21 - - - - 10 Cloudy - 25.3 1012.7 0.0
09/05:30pm SE 13 19 - - - - 10 Partly cloudy - 25.6 1012.5 0.0
09/05:00pm SE 14 21 - - - - 10 Partly cloudy - 25.6 1012.1 0.0
09/04:30pm SE 15 20 - - - - 10 Partly cloudy - 26.5 1011.7 0.0
09/04:00pm SE 15 22 - - - - 10 Partly cloudy - 25.9 1011.3 0.0
09/03:30pm SE 16 21 - - - - 10 Partly cloudy - 26.8 1011.2 0.0
09/03:00pm SE 15 22 - - - - 10 Cloudy - 27.3 1011.2 0.0
09/02:30pm SE 16 23 - - - - 10 Partly cloudy - 28.0 1011.6 0.0
09/02:17pm SE 15 26 - - - - 10 Partly cloudy - 27.2 1011.6 0.0
09/02:00pm SE 17 23 - - - - 10 Partly cloudy - 26.9 1011.9 0.0
09/01:30pm SE 13 19 - - - - 10 Partly cloudy - 26.4 1012.2 0.0
09/01:00pm SE 17 23 - - - - 10 Partly cloudy - 27.0 1012.6 0.0
09/12:30pm SE 15 21 - - - - 10 Partly cloudy - 27.0 1012.8 0.0
09/12:00pm SE 17 23 - - - - 10 Cloudy - 27.8 1013.1 0.0
09/11:30am SE 17 23 - - - - 10 Partly cloudy - 26.6 1013.5 0.0
09/11:08am SE 15 25 - - - - 10 Partly cloudy - 26.7 1013.8 0.0
09/11:00am SE 17 25 - - - - 10 Partly cloudy - 26.8 1013.8 0.0
09/10:33am SE 15 25 - - - - 10 Partly cloudy - 27.0 1014.0 0.0
09/10:30am SE 17 25 - - - - 10 Partly cloudy - 26.9 1014.1 0.0
09/10:00am SE 17 24 - - - - 10 Partly cloudy - 26.1 1014.2 0.0
09/09:37am SE 15 25 - - - - 10 Partly cloudy - 26.7 1014.1 0.0
09/09:30am SE 16 22 - - - - 10 Partly cloudy - 26.8 1014.1 0.0
09/09:00am SE 15 22 - - - - 10 Cloudy - 26.5 1013.9 0.0
09/08:30am SE 13 21 - - - - 10 Partly cloudy - 26.1 1013.7 0.0
09/08:00am SE 14 19 - - - - 10 Partly cloudy - 25.6 1013.4 0.0
09/07:30am SE 12 17 - - - - 10 Partly cloudy - 25.0 1013.0 0.0
09/07:00am SE 14 21 - - - - 10 Partly cloudy - 24.9 1012.7 0.0
09/06:30am SE 12 15 - - - - 10 Partly cloudy - 24.8 1012.6 0.0
09/06:00am SE 11 16 - - - - 10 Cloudy - 24.5 1012.3 0.0
09/05:30am SE 9 13 - - - - 10 Cloudy - 24.4 1012.1 0.0
09/05:00am SSE 8 11 - - - - 10 Partly cloudy - 24.1 1011.8 0.0
09/04:30am SE 10 16 - - - - 10 Partly cloudy - 24.6 1011.9 0.0
09/04:00am SE 12 17 - - - - 10 Partly cloudy - 24.5 1011.6 0.0
09/03:30am SE 12 16 - - - - 10 Partly cloudy - 24.9 1011.8 0.0
09/03:00am SE 12 18 - - - - 10 Mostly cloudy - 24.9 1011.7 0.0
09/02:30am SSE 11 14 - - - - 10 Cloudy - 24.7 1011.9 0.0
09/02:00am SE 11 16 - - - - 10 Partly cloudy - 24.7 1012.1 0.0
09/01:30am SSE 10 15 - - - - 10 Cloudy - 24.7 1012.4 0.0
09/01:00am SE 11 15 - - - - 10 Partly cloudy - 24.7 1012.8 0.0
09/12:30am SE 13 19 - - - - 10 Partly cloudy - 25.2 1013.1 0.0
09/12:00am SE 13 17 - - - - 10 Cloudy - 25.2 1013.2 0.0
 
Date/Time
EST
Wind Sea
Height
m
Swell Vis
km
Cloud Weather Temp
°C
Press
MSL
hPa
Rain since
9am
mm
Dir  Spd
kts
Gust
kts
Height
m
Period
s
Dir
08/11:30pm SE 12 16 - - - - 10 Partly cloudy - 25.3 1013.2 0.0
08/11:00pm SE 13 17 - - - - 10 Partly cloudy - 25.4 1013.2 0.0
08/10:30pm SE 12 16 - - - - 10 Partly cloudy - 25.4 1013.2 0.0
08/10:00pm SE 12 17 - - - - 10 Partly cloudy - 25.3 1013.2 0.0
08/09:30pm SE 12 17 - - - - 10 Partly cloudy - 25.3 1012.8 0.0
08/09:00pm SE 11 15 - - - - 10 Cloudy - 25.5 1012.7 0.0
08/08:30pm SE 13 19 - - - - 10 Partly cloudy - 25.6 1012.6 0.0
08/08:00pm SE 11 16 - - - - 10 Partly cloudy - 25.7 1012.4 0.0
08/07:30pm SSE 10 15 - - - - 10 Cloudy - 25.5 1012.2 0.0
08/07:00pm SE 14 23 - - - - 10 Partly cloudy - 25.7 1012.0 0.0
08/06:30pm SE 11 15 - - - - 10 Partly cloudy - 25.7 1011.7 0.0
08/06:00pm SE 13 18 - - - - 10 Cloudy - 25.9 1011.4 0.0
08/05:30pm SE 14 17 - - - - 10 Partly cloudy - 25.6 1011.3 0.0
08/05:00pm SE 14 18 - - - - 10 Partly cloudy - 25.9 1011.2 0.0
08/04:30pm SE 13 18 - - - - 10 Partly cloudy - 25.7 1011.0 0.0
08/04:00pm SE 13 20 - - - - 10 Partly cloudy - 27.1 1011.0 0.0
08/03:30pm SE 15 21 - - - - 10 Partly cloudy - 27.5 1010.8 0.0
08/03:00pm SE 15 19 - - - - 10 Cloudy - 28.1 1010.9 0.0
08/02:30pm SE 15 21 - - - - 10 Partly cloudy - 27.5 1011.2 0.0
08/02:00pm SE 18 23 - - - - 10 Partly cloudy - 27.3 1011.6 0.0
08/01:30pm SE 14 20 - - - - 10 Partly cloudy - 28.3 1011.8 0.0
08/01:00pm SE 17 24 - - - - 10 Partly cloudy - 28.4 1012.5 0.0
08/12:30pm SE 15 23 - - - - 10 Partly cloudy - 28.7 1012.9 0.0
08/12:00pm SE 14 20 - - - - 10 Cloudy - 27.7 1013.7 0.0
08/11:30am SE 14 21 - - - - 10 Partly cloudy - 27.8 1014.2 0.0
08/11:00am SE 14 21 - - - - 10 Partly cloudy - 27.2 1014.3 0.0
08/10:30am SE 13 20 - - - - 10 Partly cloudy - 27.7 1014.6 0.0
08/10:00am SE 14 19 - - - - 10 Partly cloudy - 26.7 1014.8 0.0
08/09:30am SE 13 20 - - - - 10 Partly cloudy - 26.4 1014.7 0.0
08/09:00am SE 14 21 - - - - 10 Cloudy - 26.0 1014.3 0.0
08/08:30am SE 13 19 - - - - 10 Partly cloudy - 25.9 1013.9 0.0
08/08:00am SE 11 15 - - - - 10 Partly cloudy - 25.4 1013.5 0.0
08/07:30am SE 11 14 - - - - 10 Partly cloudy - 24.6 1013.1 0.0
08/07:00am SE 11 17 - - - - 10 Partly cloudy - 24.3 1012.6 0.0
08/06:30am SE 9 13 - - - - 10 Partly cloudy - 24.1 1012.2 0.0
08/06:00am SE 8 12 - - - - 10 Cloudy - 24.0 1011.9 0.0
08/05:30am SE 11 15 - - - - 10 Partly cloudy - 24.2 1011.8 0.0
08/05:00am SE 10 14 - - - - 10 Partly cloudy - 24.5 1011.6 0.0
08/04:30am SE 9 12 - - - - 10 Partly cloudy - 24.3 1011.4 0.0
08/04:00am SE 9 12 - - - - 10 Partly cloudy - 23.9 1011.4 0.0
08/03:30am SE 8 11 - - - - 10 - - 23.8 1011.5 0.0
08/03:00am SE 10 14 - - - - 10 Cloudy - 24.5 1011.8 0.0
08/02:30am SE 10 14 - - - - 10 Partly cloudy - 24.6 1011.9 0.0
08/02:00am SE 10 14 - - - - 10 Partly cloudy - 24.5 1012.1 0.0
08/01:30am SE 10 16 - - - - 10 Partly cloudy - 24.5 1012.4 0.0
08/01:06am SE 12 15 - - - - 10 Partly cloudy - 24.4 1012.7 0.0

Other formats

Comma delimited format used in spreadsheet applications
http://www.bom.gov.au/fwo/IDQ60701/IDQ60701.94186.axf

JavaScript Object Notation format (JSON) in row-major order
http://www.bom.gov.au/fwo/IDQ60701/IDQ60701.94186.json

Data quality

Most of these data are generated automatically and are frequently updated. Quality checks on data are not normally performed. It is possible for incorrect values to appear. Refer to information at About Latest Weather Observations and please check the disclaimer before using these data.